Time;durP1;ratioP1;P1;durP2;ratioP2;P2;SDS_P1;SDS_P2;PMS_P1;PMS_P2;Temp;Humidity;BMP_temperature;BMP_pressure;BME280_temperature;BME280_humidity;BME280_pressure;Samples;Min_cycle;Max_cycle;Signal;HPM_P1;HPM_P2
2022/03/22 06:02:52;;;;;;;1999.90;999.90;;;;;;;;;;5076651;23;20388;-69
2022/03/22 06:05:37;;;;;;;1999.90;999.90;;;;;;;;;;5013638;28;20337;-68
2022/03/22 06:08:22;;;;;;;1999.90;999.90;;;;;;;;;;5012915;28;20577;-71
2022/03/22 06:11:06;;;;;;;1999.90;999.90;;;;;;;;;;5013286;28;20229;-70
2022/03/22 06:13:51;;;;;;;1999.90;999.90;;;;;;;;;;5013622;28;20333;-69
2022/03/22 06:16:36;;;;;;;1999.90;999.90;;;;;;;;;;5013217;28;20226;-70
2022/03/22 06:19:23;;;;;;;1999.90;999.90;;;;;;;;;;5012691;28;20222;-69
2022/03/22 06:22:09;;;;;;;1999.90;999.90;;;;;;;;;;5012975;28;20274;-70
2022/03/22 06:24:54;;;;;;;1999.90;999.90;;;;;;;;;;5013131;28;20210;-69
2022/03/22 06:27:39;;;;;;;1999.90;999.90;;;;;;;;;;5011862;28;20211;-69
2022/03/22 06:30:25;;;;;;;1999.90;999.90;;;;;;;;;;5013221;28;20214;-69
2022/03/22 06:33:12;;;;;;;1999.90;999.90;;;;;;;;;;5012992;28;20282;-69
2022/03/22 06:35:59;;;;;;;1999.90;999.90;;;;;;;;;;5012970;28;20222;-69
2022/03/22 06:38:44;;;;;;;1999.90;999.90;;;;;;;;;;5011394;28;20215;-70
2022/03/22 06:41:29;;;;;;;1999.90;999.90;;;;;;;;;;5011786;28;20408;-69
2022/03/22 06:44:14;;;;;;;1999.90;999.90;;;;;;;;;;5013071;28;20268;-69
2022/03/22 06:46:59;;;;;;;1999.90;999.90;;;;;;;;;;5012994;28;20329;-69
2022/03/22 06:49:43;;;;;;;1999.90;999.90;;;;;;;;;;5012271;28;20206;-69
2022/03/22 06:52:30;;;;;;;1999.90;999.90;;;;;;;;;;5010784;28;20234;-75
2022/03/22 06:55:18;;;;;;;1999.90;999.90;;;;;;;;;;5000905;28;20314;-70
2022/03/22 06:58:03;;;;;;;1999.90;999.90;;;;;;;;;;4998855;28;20250;-71
2022/03/22 07:00:48;;;;;;;1999.90;999.90;;;;;;;;;;5012511;28;20594;-71
2022/03/22 07:03:34;;;;;;;1999.90;999.90;;;;;;;;;;5003017;28;20199;-70
2022/03/22 07:06:18;;;;;;;1999.90;999.90;;;;;;;;;;5010808;28;20581;-70
2022/03/22 07:09:05;;;;;;;1999.90;999.90;;;;;;;;;;5000736;28;20540;-69
2022/03/22 07:11:55;;;;;;;1999.90;999.90;;;;;;;;;;5012024;28;20617;-69
2022/03/22 07:14:40;;;;;;;1999.90;999.90;;;;;;;;;;4994814;28;20772;-69
2022/03/22 07:17:25;;;;;;;1999.90;999.90;;;;;;;;;;4992406;28;20207;-69
2022/03/22 07:20:10;;;;;;;1999.90;999.90;;;;;;;;;;4992048;28;20366;-70
2022/03/22 07:22:56;;;;;;;1999.90;999.90;;;;;;;;;;4993907;28;20202;-68
2022/03/22 07:25:42;;;;;;;1999.90;999.90;;;;;;;;;;5002114;28;20755;-68
2022/03/22 07:28:27;;;;;;;1999.90;999.90;;;;;;;;;;4991083;28;20714;-69
2022/03/22 07:31:13;;;;;;;1999.90;999.90;;;;;;;;;;5009697;28;20230;-69
2022/03/22 07:33:58;;;;;;;1999.90;999.90;;;;;;;;;;5010253;28;20207;-69
2022/03/22 07:36:44;;;;;;;1999.90;999.90;;;;;;;;;;5010236;28;20602;-71
2022/03/22 07:39:33;;;;;;;1999.90;999.90;;;;;;;;;;5009456;28;20207;-67
2022/03/22 07:42:19;;;;;;;1999.90;999.90;;;;;;;;;;5009917;28;20640;-70
2022/03/22 07:45:05;;;;;;;1999.90;999.90;;;;;;;;;;5007404;28;20210;-69
2022/03/22 07:47:50;;;;;;;1999.90;999.90;;;;;;;;;;4991314;28;20214;-70
2022/03/22 07:53:49;;;;;;;1999.90;999.90;;;;;;;;;;4936152;29;20262;-70
2022/03/22 07:56:34;;;;;;;1999.90;999.90;;;;;;;;;;5000856;28;20723;-69
2022/03/22 07:59:20;;;;;;;1999.90;999.90;;;;;;;;;;5008141;28;20561;-70
2022/03/22 08:02:05;;;;;;;1999.90;999.90;;;;;;;;;;5013349;28;20762;-71
2022/03/22 08:04:50;;;;;;;1999.90;999.90;;;;;;;;;;5001293;28;20408;-70
2022/03/22 08:07:36;;;;;;;1999.90;999.90;;;;;;;;;;5010680;28;20332;-68
2022/03/22 08:10:21;;;;;;;1999.90;999.90;;;;;;;;;;5015510;28;20763;-69
2022/03/22 08:13:08;;;;;;;1999.90;999.90;;;;;;;;;;5015860;28;20191;-71
2022/03/22 08:15:54;;;;;;;1999.90;999.90;;;;;;;;;;5014689;28;20724;-70
2022/03/22 08:18:39;;;;;;;1999.90;999.90;;;;;;;;;;5000681;28;20219;-70
2022/03/22 08:21:24;;;;;;;1999.90;999.90;;;;;;;;;;5005157;28;20226;-73
2022/03/22 08:24:09;;;;;;;1999.90;999.90;;;;;;;;;;5012889;28;20267;-69
2022/03/22 08:26:54;;;;;;;1999.90;999.90;;;;;;;;;;5015516;28;20277;-69
2022/03/22 08:29:39;;;;;;;1999.90;999.90;;;;;;;;;;5014329;28;20334;-70
2022/03/22 08:32:26;;;;;;;1999.90;999.90;;;;;;;;;;5011977;28;20720;-70
2022/03/22 08:35:11;;;;;;;1999.90;999.90;;;;;;;;;;5014285;28;20190;-68
2022/03/22 08:37:56;;;;;;;1999.90;999.90;;;;;;;;;;4995052;28;20216;-69
2022/03/22 08:40:42;;;;;;;1999.90;999.90;;;;;;;;;;4999439;28;20732;-71
2022/03/22 08:43:26;;;;;;;1999.90;999.90;;;;;;;;;;5013900;28;20403;-70
2022/03/22 08:46:14;;;;;;;1999.90;999.90;;;;;;;;;;5015039;28;20221;-70
2022/03/22 08:49:00;;;;;;;1999.90;999.90;;;;;;;;;;5013748;28;20213;-69
2022/03/22 08:51:45;;;;;;;1999.90;999.90;;;;;;;;;;5014701;28;20776;-68
2022/03/22 08:54:30;;;;;;;1999.90;999.90;;;;;;;;;;5014356;28;20277;-70
2022/03/22 08:57:15;;;;;;;1999.90;999.90;;;;;;;;;;5014587;28;20242;-70
2022/03/22 08:59:59;;;;;;;1999.90;999.90;;;;;;;;;;5013847;28;20289;-68
2022/03/22 09:02:45;;;;;;;1999.90;999.90;;;;;;;;;;5014670;28;20225;-69
2022/03/22 09:08:35;;;;;;;1999.90;999.90;;;;;;;;;;5013915;28;20272;-68
2022/03/22 09:11:20;;;;;;;1999.90;999.90;;;;;;;;;;5014208;28;20297;-71
2022/03/22 09:14:04;;;;;;;1999.90;999.90;;;;;;;;;;5005284;28;20274;-69
2022/03/22 09:16:49;;;;;;;1999.90;999.90;;;;;;;;;;4994893;28;20230;-68
2022/03/22 09:19:36;;;;;;;1999.90;999.90;;;;;;;;;;4994163;28;20207;-71
2022/03/22 09:22:23;;;;;;;1999.90;999.90;;;;;;;;;;4994620;28;20231;-70
2022/03/22 09:25:08;;;;;;;1999.90;999.90;;;;;;;;;;4994920;28;20203;-68
2022/03/22 09:27:54;;;;;;;1999.90;999.90;;;;;;;;;;4994003;28;20311;-70
2022/03/22 09:30:39;;;;;;;1999.90;999.90;;;;;;;;;;4994549;28;20609;-70
2022/03/22 09:33:24;;;;;;;1999.90;999.90;;;;;;;;;;4994779;28;20211;-69
2022/03/22 09:36:09;;;;;;;1999.90;999.90;;;;;;;;;;5001110;28;20353;-68
2022/03/22 09:38:55;;;;;;;1999.90;999.90;;;;;;;;;;5012510;28;20666;-71
2022/03/22 09:41:41;;;;;;;1999.90;999.90;;;;;;;;;;5013941;28;20230;-71
2022/03/22 09:44:29;;;;;;;1999.90;999.90;;;;;;;;;;5013156;28;20791;-71
2022/03/22 09:47:14;;;;;;;1999.90;999.90;;;;;;;;;;5000839;28;20205;-69
2022/03/22 09:49:59;;;;;;;1999.90;999.90;;;;;;;;;;4995561;28;20335;-70
2022/03/22 09:52:44;;;;;;;1999.90;999.90;;;;;;;;;;4994206;28;20234;-70
2022/03/22 09:55:34;;;;;;;1999.90;999.90;;;;;;;;;;4994329;28;20211;-70
2022/03/22 09:58:20;;;;;;;1999.90;999.90;;;;;;;;;;4993053;28;20282;-69
2022/03/22 10:01:06;;;;;;;1999.90;999.90;;;;;;;;;;4994003;28;20234;-70
2022/03/22 10:03:55;;;;;;;1999.90;999.90;;;;;;;;;;5003631;28;20213;-70
2022/03/22 10:06:51;;;;;;;1999.90;999.90;;;;;;;;;;5013489;28;20199;-70
2022/03/22 10:09:39;;;;;;;1999.90;999.90;;;;;;;;;;5012586;28;20772;-69
2022/03/22 10:12:29;;;;;;;1999.90;999.90;;;;;;;;;;4995940;28;20231;-70
2022/03/22 10:15:15;;;;;;;1999.90;999.90;;;;;;;;;;5010916;28;20431;-71
2022/03/22 10:18:05;;;;;;;1999.90;999.90;;;;;;;;;;5012367;28;20274;-69
2022/03/22 10:20:58;;;;;;;1999.90;999.90;;;;;;;;;;5004189;28;20230;-69
2022/03/22 10:23:50;;;;;;;1999.90;999.90;;;;;;;;;;5013311;28;20338;-70
2022/03/22 10:26:35;;;;;;;1999.90;999.90;;;;;;;;;;4993710;28;20200;-70
2022/03/22 10:29:21;;;;;;;1999.90;999.90;;;;;;;;;;5005954;28;20574;-69
2022/03/22 10:32:07;;;;;;;1999.90;999.90;;;;;;;;;;5013148;28;20324;-69
2022/03/22 10:34:51;;;;;;;1999.90;999.90;;;;;;;;;;5013269;28;20218;-69
2022/03/22 10:37:37;;;;;;;1999.90;999.90;;;;;;;;;;5012284;28;20423;-67
2022/03/22 10:40:28;;;;;;;1999.90;999.90;;;;;;;;;;5012370;28;20206;-70
2022/03/22 10:43:14;;;;;;;1999.90;999.90;;;;;;;;;;5012651;28;20285;-69
2022/03/22 10:46:01;;;;;;;1999.90;999.90;;;;;;;;;;5012530;28;20210;-68
2022/03/22 10:48:47;;;;;;;1999.90;999.90;;;;;;;;;;5011888;28;20214;-69
2022/03/22 10:51:32;;;;;;;1999.90;999.90;;;;;;;;;;5010523;28;20305;-68
2022/03/22 10:54:18;;;;;;;1999.90;999.90;;;;;;;;;;4995934;28;20334;-69
2022/03/22 10:57:03;;;;;;;1999.90;999.90;;;;;;;;;;4993143;28;20212;-69
2022/03/22 10:59:48;;;;;;;1999.90;999.90;;;;;;;;;;5004463;28;20234;-68
2022/03/22 11:02:37;;;;;;;1999.90;999.90;;;;;;;;;;4999178;28;20744;-70
2022/03/22 11:05:23;;;;;;;1999.90;999.90;;;;;;;;;;5009771;28;20202;-69
2022/03/22 11:08:08;;;;;;;1999.90;999.90;;;;;;;;;;5011579;28;20494;-69
2022/03/22 11:10:54;;;;;;;1999.90;999.90;;;;;;;;;;5008665;28;20725;-69
2022/03/22 11:13:39;;;;;;;1999.90;999.90;;;;;;;;;;4998074;28;20222;-70
2022/03/22 11:16:27;;;;;;;1999.90;999.90;;;;;;;;;;5011833;28;20226;-69
2022/03/22 11:19:13;;;;;;;1999.90;999.90;;;;;;;;;;5011625;28;20214;-69
2022/03/22 11:22:04;;;;;;;1999.90;999.90;;;;;;;;;;5012337;28;20227;-69
2022/03/22 11:24:49;;;;;;;1999.90;999.90;;;;;;;;;;5011526;28;20210;-69
2022/03/22 11:27:35;;;;;;;1999.90;999.90;;;;;;;;;;5011985;28;20198;-72
2022/03/22 11:30:20;;;;;;;1999.90;999.90;;;;;;;;;;5011655;28;20211;-73
2022/03/22 11:36:17;;;;;;;1999.90;999.90;;;;;;;;;;5011740;28;20207;-69
2022/03/22 11:39:03;;;;;;;1999.90;999.90;;;;;;;;;;5005795;28;20214;-70
2022/03/22 11:44:57;;;;;;;1999.90;999.90;;;;;;;;;;5012265;28;20202;-69
2022/03/22 11:47:47;;;;;;;1999.90;999.90;;;;;;;;;;4990563;28;20509;-69
2022/03/22 11:50:33;;;;;;;1999.90;999.90;;;;;;;;;;5004057;28;20630;-69
2022/03/22 11:53:20;;;;;;;1999.90;999.90;;;;;;;;;;5011975;28;20280;-69
2022/03/22 11:56:06;;;;;;;1999.90;999.90;;;;;;;;;;5008070;28;20217;-70
2022/03/22 11:58:52;;;;;;;1999.90;999.90;;;;;;;;;;5007110;28;20206;-69
2022/03/22 12:01:37;;;;;;;1999.90;999.90;;;;;;;;;;5005933;28;20358;-70
2022/03/22 12:04:32;;;;;;;1999.90;999.90;;;;;;;;;;5002585;28;20210;-69
2022/03/22 12:07:22;;;;;;;1999.90;999.90;;;;;;;;;;5012092;28;20222;-69
2022/03/22 12:10:08;;;;;;;1999.90;999.90;;;;;;;;;;5011697;28;20211;-68
2022/03/22 12:12:55;;;;;;;1999.90;999.90;;;;;;;;;;5009803;28;20283;-69
2022/03/22 12:15:41;;;;;;;1999.90;999.90;;;;;;;;;;5011945;28;20402;-69
2022/03/22 12:18:29;;;;;;;1999.90;999.90;;;;;;;;;;5011052;28;20226;-70
2022/03/22 12:21:18;;;;;;;1999.90;999.90;;;;;;;;;;5011959;28;20302;-70
2022/03/22 12:24:04;;;;;;;1999.90;999.90;;;;;;;;;;5011784;28;20207;-69
2022/03/22 12:26:50;;;;;;;1999.90;999.90;;;;;;;;;;5012028;28;20186;-72
2022/03/22 12:29:40;;;;;;;1999.90;999.90;;;;;;;;;;5011279;28;20265;-70
2022/03/22 12:32:27;;;;;;;1999.90;999.90;;;;;;;;;;5011847;28;20239;-70
2022/03/22 12:35:13;;;;;;;1999.90;999.90;;;;;;;;;;5011984;28;20189;-68
2022/03/22 12:37:58;;;;;;;1999.90;999.90;;;;;;;;;;5014598;28;20734;-72
2022/03/22 12:40:43;;;;;;;1999.90;999.90;;;;;;;;;;5015442;28;20273;-70
2022/03/22 12:43:30;;;;;;;1999.90;999.90;;;;;;;;;;5015392;28;20334;-71
2022/03/22 12:46:16;;;;;;;1999.90;999.90;;;;;;;;;;5015342;28;20203;-70
2022/03/22 12:49:00;;;;;;;1999.90;999.90;;;;;;;;;;5014105;28;20412;-73
2022/03/22 12:51:48;;;;;;;1999.90;999.90;;;;;;;;;;5017227;28;20354;-70
2022/03/22 12:54:33;;;;;;;1999.90;999.90;;;;;;;;;;5015533;28;20221;-74
2022/03/22 12:57:18;;;;;;;1999.90;999.90;;;;;;;;;;5014966;28;20744;-71
2022/03/22 13:00:05;;;;;;;1999.90;999.90;;;;;;;;;;5014764;28;20610;-73
2022/03/22 13:02:50;;;;;;;1999.90;999.90;;;;;;;;;;5015027;28;20210;-70
2022/03/22 13:05:39;;;;;;;1999.90;999.90;;;;;;;;;;5014882;28;20812;-70
2022/03/22 13:08:26;;;;;;;1999.90;999.90;;;;;;;;;;5014049;28;20629;-71
2022/03/22 13:11:29;;;;;;;1999.90;999.90;;;;;;;;;;5014581;28;20291;-70
2022/03/22 13:17:19;;;;;;;1999.90;999.90;;;;;;;;;;5014679;28;20234;-71
2022/03/22 13:20:11;;;;;;;1999.90;999.90;;;;;;;;;;5012677;28;20878;-69
2022/03/22 13:22:57;;;;;;;1999.90;999.90;;;;;;;;;;5014637;28;20272;-71
2022/03/22 13:25:43;;;;;;;1999.90;999.90;;;;;;;;;;5014604;28;20583;-69
2022/03/22 13:28:34;;;;;;;1999.90;999.90;;;;;;;;;;5013822;28;20205;-70
2022/03/22 13:31:21;;;;;;;1999.90;999.90;;;;;;;;;;5014332;28;20214;-71
2022/03/22 13:34:07;;;;;;;1999.90;999.90;;;;;;;;;;5014362;28;20696;-71
2022/03/22 13:37:03;;;;;;;1999.90;999.90;;;;;;;;;;5014200;28;20609;-71
2022/03/22 13:39:50;;;;;;;1999.90;999.90;;;;;;;;;;5013776;28;20274;-73
2022/03/22 13:42:37;;;;;;;1999.90;999.90;;;;;;;;;;5014112;28;20225;-69
2022/03/22 13:45:22;;;;;;;1999.90;999.90;;;;;;;;;;5014209;28;20195;-71
2022/03/22 13:48:08;;;;;;;1999.90;999.90;;;;;;;;;;5013404;28;20199;-71
2022/03/22 13:50:54;;;;;;;1999.90;999.90;;;;;;;;;;5013762;28;20223;-71
2022/03/22 13:53:39;;;;;;;1999.90;999.90;;;;;;;;;;5013817;28;20254;-71
2022/03/22 13:56:25;;;;;;;1999.90;999.90;;;;;;;;;;5014066;28;20293;-71
2022/03/22 13:59:11;;;;;;;1999.90;999.90;;;;;;;;;;5013067;28;20238;-70
2022/03/22 14:01:56;;;;;;;1999.90;999.90;;;;;;;;;;5013613;28;20238;-72
2022/03/22 14:04:41;;;;;;;1999.90;999.90;;;;;;;;;;5013662;28;20278;-70
2022/03/22 14:07:27;;;;;;;1999.90;999.90;;;;;;;;;;5013351;28;20570;-73
2022/03/22 14:10:12;;;;;;;1999.90;999.90;;;;;;;;;;5013384;28;20206;-71
2022/03/22 14:12:58;;;;;;;1999.90;999.90;;;;;;;;;;5013709;28;20573;-72
2022/03/22 14:15:44;;;;;;;1999.90;999.90;;;;;;;;;;5013392;28;20206;-70
2022/03/22 14:18:29;;;;;;;1999.90;999.90;;;;;;;;;;5012656;28;20755;-71
2022/03/22 14:21:13;;;;;;;1999.90;999.90;;;;;;;;;;5013435;28;20226;-71
2022/03/22 14:24:00;;;;;;;1999.90;999.90;;;;;;;;;;5013392;28;20210;-70
2022/03/22 14:26:44;;;;;;;1999.90;999.90;;;;;;;;;;5013137;28;20297;-71
2022/03/22 14:29:29;;;;;;;1999.90;999.90;;;;;;;;;;5012832;28;20210;-72
2022/03/22 14:32:14;;;;;;;1999.90;999.90;;;;;;;;;;5013264;28;20222;-72
2022/03/22 14:38:02;;;;;;;1999.90;999.90;;;;;;;;;;5012377;28;20234;-71
2022/03/22 14:40:49;;;;;;;1999.90;999.90;;;;;;;;;;5013280;28;20313;-71
2022/03/22 14:43:34;;;;;;;1999.90;999.90;;;;;;;;;;5012981;28;20207;-71
2022/03/22 14:46:20;;;;;;;1999.90;999.90;;;;;;;;;;5013044;28;20575;-71
2022/03/22 14:49:05;;;;;;;1999.90;999.90;;;;;;;;;;5012407;28;20689;-72
2022/03/22 14:54:52;;;;;;;1999.90;999.90;;;;;;;;;;5012910;28;20282;-71
2022/03/22 15:00:41;;;;;;;1999.90;999.90;;;;;;;;;;5012579;28;20257;-72
2022/03/22 15:03:27;;;;;;;1999.90;999.90;;;;;;;;;;5012799;28;20249;-71
2022/03/22 15:06:14;;;;;;;1999.90;999.90;;;;;;;;;;5012464;28;20685;-71
2022/03/22 15:08:59;;;;;;;1999.90;999.90;;;;;;;;;;5012160;28;20226;-71
2022/03/22 15:11:44;;;;;;;1999.90;999.90;;;;;;;;;;5012290;28;20219;-71
2022/03/22 15:14:31;;;;;;;1999.90;999.90;;;;;;;;;;5012615;28;20218;-70
2022/03/22 15:17:16;;;;;;;1999.90;999.90;;;;;;;;;;5013258;28;20210;-71
2022/03/22 15:20:00;;;;;;;1999.90;999.90;;;;;;;;;;5012174;28;20576;-72
2022/03/22 15:22:46;;;;;;;1999.90;999.90;;;;;;;;;;5012277;28;20215;-71
2022/03/22 15:25:31;;;;;;;1999.90;999.90;;;;;;;;;;5012427;28;20208;-74
2022/03/22 15:28:16;;;;;;;1999.90;999.90;;;;;;;;;;5011883;28;20689;-72
2022/03/22 15:31:03;;;;;;;1999.90;999.90;;;;;;;;;;5012383;28;20235;-69
2022/03/22 15:33:48;;;;;;;1999.90;999.90;;;;;;;;;;5012369;28;20207;-72
2022/03/22 15:36:33;;;;;;;1999.90;999.90;;;;;;;;;;5012372;28;20210;-71
2022/03/22 15:39:18;;;;;;;1999.90;999.90;;;;;;;;;;5011421;28;20329;-72
2022/03/22 15:42:06;;;;;;;1999.90;999.90;;;;;;;;;;5012190;28;20752;-71
2022/03/22 15:44:50;;;;;;;1999.90;999.90;;;;;;;;;;5012192;28;20254;-71
2022/03/22 15:47:36;;;;;;;1999.90;999.90;;;;;;;;;;5012103;28;20214;-69
2022/03/22 15:50:27;;;;;;;1999.90;999.90;;;;;;;;;;5012153;28;20195;-71
2022/03/22 15:53:12;;;;;;;1999.90;999.90;;;;;;;;;;5012492;28;20289;-70
2022/03/22 15:55:58;;;;;;;1999.90;999.90;;;;;;;;;;5012149;28;20582;-72
2022/03/22 15:58:44;;;;;;;1999.90;999.90;;;;;;;;;;5011264;28;20222;-72
2022/03/22 16:01:29;;;;;;;1999.90;999.90;;;;;;;;;;5011919;28;20237;-69
2022/03/22 16:04:15;;;;;;;1999.90;999.90;;;;;;;;;;5012105;28;20198;-71
2022/03/22 16:07:01;;;;;;;1999.90;999.90;;;;;;;;;;5011929;28;20202;-70
2022/03/22 16:09:46;;;;;;;1999.90;999.90;;;;;;;;;;5012292;28;20581;-72
2022/03/22 16:12:31;;;;;;;1999.90;999.90;;;;;;;;;;5015911;28;20313;-71
2022/03/22 16:15:17;;;;;;;1999.90;999.90;;;;;;;;;;5015856;28;20205;-71
2022/03/22 16:18:03;;;;;;;1999.90;999.90;;;;;;;;;;5015069;28;20736;-73
2022/03/22 16:20:51;;;;;;;1999.90;999.90;;;;;;;;;;5015070;28;20494;-73
2022/03/22 16:23:36;;;;;;;1999.90;999.90;;;;;;;;;;5015981;28;20632;-72
2022/03/22 16:26:21;;;;;;;1999.90;999.90;;;;;;;;;;5015583;28;20234;-71
2022/03/22 16:29:06;;;;;;;1999.90;999.90;;;;;;;;;;5014996;28;20224;-71
2022/03/22 16:31:52;;;;;;;1999.90;999.90;;;;;;;;;;5015820;28;20226;-71
2022/03/22 16:37:40;;;;;;;1999.90;999.90;;;;;;;;;;5015135;28;20245;-72
2022/03/22 16:40:25;;;;;;;1999.90;999.90;;;;;;;;;;5015007;28;20198;-74
2022/03/22 16:43:10;;;;;;;1999.90;999.90;;;;;;;;;;5015301;28;20206;-71
2022/03/22 16:45:55;;;;;;;1999.90;999.90;;;;;;;;;;5015285;28;20204;-71
2022/03/22 16:48:40;;;;;;;1999.90;999.90;;;;;;;;;;5014595;28;20217;-73
2022/03/22 16:51:27;;;;;;;1999.90;999.90;;;;;;;;;;5014929;28;20694;-70
2022/03/22 16:54:13;;;;;;;1999.90;999.90;;;;;;;;;;5015106;28;20210;-71
2022/03/22 16:56:58;;;;;;;1999.90;999.90;;;;;;;;;;5015056;28;20203;-69
2022/03/22 16:59:44;;;;;;;1999.90;999.90;;;;;;;;;;5014270;28;20222;-71
2022/03/22 17:02:29;;;;;;;1999.90;999.90;;;;;;;;;;5014577;28;20253;-71
2022/03/22 17:05:14;;;;;;;1999.90;999.90;;;;;;;;;;5015034;28;20553;-72
2022/03/22 17:07:59;;;;;;;1999.90;999.90;;;;;;;;;;5014335;28;20211;-69
2022/03/22 17:10:45;;;;;;;1999.90;999.90;;;;;;;;;;5014728;28;20230;-72
2022/03/22 17:13:31;;;;;;;1999.90;999.90;;;;;;;;;;5014778;28;20696;-72
2022/03/22 17:16:16;;;;;;;1999.90;999.90;;;;;;;;;;5015026;28;20289;-71
2022/03/22 17:19:03;;;;;;;1999.90;999.90;;;;;;;;;;5014023;28;20214;-69
2022/03/22 17:21:49;;;;;;;1999.90;999.90;;;;;;;;;;5014104;28;20235;-71
2022/03/22 17:24:34;;;;;;;1999.90;999.90;;;;;;;;;;5016325;28;20283;-70
2022/03/22 17:27:21;;;;;;;1999.90;999.90;;;;;;;;;;5016009;28;20318;-72
2022/03/22 17:30:06;;;;;;;1999.90;999.90;;;;;;;;;;5014317;28;20797;-72
2022/03/22 17:32:51;;;;;;;1999.90;999.90;;;;;;;;;;5014485;28;20206;-73
2022/03/22 17:35:36;;;;;;;1999.90;999.90;;;;;;;;;;5014730;28;20198;-70
2022/03/22 17:38:21;;;;;;;1999.90;999.90;;;;;;;;;;5013741;28;20226;-71
2022/03/22 17:41:07;;;;;;;1999.90;999.90;;;;;;;;;;5014339;28;20274;-72
2022/03/22 17:43:53;;;;;;;1999.90;999.90;;;;;;;;;;5014117;28;20199;-70
2022/03/22 17:46:38;;;;;;;1999.90;999.90;;;;;;;;;;5014123;28;20214;-71
2022/03/22 17:49:23;;;;;;;1999.90;999.90;;;;;;;;;;5013879;28;20303;-71
2022/03/22 17:52:08;;;;;;;1999.90;999.90;;;;;;;;;;5013277;28;20417;-69
2022/03/22 17:54:53;;;;;;;1999.90;999.90;;;;;;;;;;5014193;28;20234;-69
2022/03/22 17:57:38;;;;;;;1999.90;999.90;;;;;;;;;;5013583;28;20281;-71
2022/03/22 18:00:25;;;;;;;1999.90;999.90;;;;;;;;;;5013976;28;20724;-71
2022/03/22 18:03:10;;;;;;;1999.90;999.90;;;;;;;;;;5013945;28;20207;-70
2022/03/22 18:05:57;;;;;;;1999.90;999.90;;;;;;;;;;5013986;28;20338;-69
2022/03/22 18:08:42;;;;;;;1999.90;999.90;;;;;;;;;;5013513;28;20201;-71
2022/03/22 18:11:50;;;;;;;1999.90;999.90;;;;;;;;;;5013711;28;20270;-71
2022/03/22 18:14:35;;;;;;;1999.90;999.90;;;;;;;;;;5013944;28;20564;-70
2022/03/22 18:17:21;;;;;;;1999.90;999.90;;;;;;;;;;5013723;28;20226;-72
2022/03/22 18:20:08;;;;;;;1999.90;999.90;;;;;;;;;;5013244;28;20593;-72
2022/03/22 18:22:53;;;;;;;1999.90;999.90;;;;;;;;;;5013599;28;20218;-71
2022/03/22 18:25:38;;;;;;;1999.90;999.90;;;;;;;;;;5013629;28;20226;-69
2022/03/22 18:28:23;;;;;;;1999.90;999.90;;;;;;;;;;5013000;28;20693;-73
2022/03/22 18:31:08;;;;;;;1999.90;999.90;;;;;;;;;;5013359;28;20282;-71
2022/03/22 18:33:54;;;;;;;1999.90;999.90;;;;;;;;;;5012547;28;20298;-71
2022/03/22 18:36:40;;;;;;;1999.90;999.90;;;;;;;;;;5013467;28;20569;-69
2022/03/22 18:39:25;;;;;;;1999.90;999.90;;;;;;;;;;5012581;28;20234;-71
2022/03/22 18:42:10;;;;;;;1999.90;999.90;;;;;;;;;;5013018;28;20226;-71
2022/03/22 18:44:55;;;;;;;1999.90;999.90;;;;;;;;;;5013490;28;20579;-71
2022/03/22 18:47:40;;;;;;;1999.90;999.90;;;;;;;;;;5012693;28;20218;-70
2022/03/22 18:50:26;;;;;;;1999.90;999.90;;;;;;;;;;5013377;28;20661;-70
2022/03/22 18:53:11;;;;;;;1999.90;999.90;;;;;;;;;;5013227;28;20214;-69
2022/03/22 18:55:56;;;;;;;1999.90;999.90;;;;;;;;;;5013226;28;20211;-70
2022/03/22 18:58:43;;;;;;;1999.90;999.90;;;;;;;;;;5012437;28;20211;-71
2022/03/22 19:01:28;;;;;;;1999.90;999.90;;;;;;;;;;5012657;28;20598;-68
2022/03/22 19:04:13;;;;;;;1999.90;999.90;;;;;;;;;;5013056;28;20206;-71
2022/03/22 19:07:01;;;;;;;1999.90;999.90;;;;;;;;;;5011950;28;20210;-69
2022/03/22 19:09:46;;;;;;;1999.90;999.90;;;;;;;;;;5009075;28;20564;-71
2022/03/22 19:12:30;;;;;;;1999.90;999.90;;;;;;;;;;5010798;28;20732;-68
2022/03/22 19:15:16;;;;;;;1999.90;999.90;;;;;;;;;;5007513;28;20233;-69
2022/03/22 19:18:00;;;;;;;1999.90;999.90;;;;;;;;;;4997620;28;20203;-71
2022/03/22 19:20:45;;;;;;;1999.90;999.90;;;;;;;;;;4999767;28;20617;-71
2022/03/22 19:23:31;;;;;;;1999.90;999.90;;;;;;;;;;5008736;28;20415;-69
2022/03/22 19:26:16;;;;;;;1999.90;999.90;;;;;;;;;;4995020;28;20210;-70
2022/03/22 19:29:01;;;;;;;1999.90;999.90;;;;;;;;;;5002571;28;20214;-71
2022/03/22 19:34:53;;;;;;;1999.90;999.90;;;;;;;;;;5002322;28;20222;-73
2022/03/22 19:37:38;;;;;;;1999.90;999.90;;;;;;;;;;5000193;28;20211;-69
2022/03/22 19:40:26;;;;;;;1999.90;999.90;;;;;;;;;;4995045;28;20229;-69
2022/03/22 19:43:12;;;;;;;1999.90;999.90;;;;;;;;;;4998263;28;20263;-71
2022/03/22 19:45:58;;;;;;;1999.90;999.90;;;;;;;;;;5000579;28;20701;-70
2022/03/22 19:48:43;;;;;;;1999.90;999.90;;;;;;;;;;5006404;28;20293;-70
2022/03/22 19:51:28;;;;;;;1999.90;999.90;;;;;;;;;;4996064;28;20316;-73
2022/03/22 19:54:13;;;;;;;1999.90;999.90;;;;;;;;;;5003719;28;20213;-71
2022/03/22 19:56:59;;;;;;;1999.90;999.90;;;;;;;;;;4996249;28;20206;-70
2022/03/22 19:59:44;;;;;;;1999.90;999.90;;;;;;;;;;4997939;28;20717;-69
2022/03/22 20:02:30;;;;;;;1999.90;999.90;;;;;;;;;;4994488;28;20241;-70
2022/03/22 20:05:15;;;;;;;1999.90;999.90;;;;;;;;;;5003658;28;20276;-71
2022/03/22 20:08:01;;;;;;;1999.90;999.90;;;;;;;;;;5002979;28;20206;-72
2022/03/22 20:10:47;;;;;;;1999.90;999.90;;;;;;;;;;5003138;28;20241;-71
2022/03/22 20:13:33;;;;;;;1999.90;999.90;;;;;;;;;;4997769;28;20208;-69
2022/03/22 20:16:18;;;;;;;1999.90;999.90;;;;;;;;;;4999594;28;20303;-70
2022/03/22 20:19:05;;;;;;;1999.90;999.90;;;;;;;;;;5006599;28;20223;-70
2022/03/22 20:21:50;;;;;;;1999.90;999.90;;;;;;;;;;4998002;28;20841;-70
2022/03/22 20:24:39;;;;;;;1999.90;999.90;;;;;;;;;;4991981;28;20209;-72
2022/03/22 20:27:23;;;;;;;1999.90;999.90;;;;;;;;;;4990051;28;20418;-70
2022/03/22 20:30:11;;;;;;;1999.90;999.90;;;;;;;;;;5007146;28;20233;-70
2022/03/22 20:32:56;;;;;;;1999.90;999.90;;;;;;;;;;4999341;28;20700;-71
2022/03/22 20:35:40;;;;;;;1999.90;999.90;;;;;;;;;;4994079;28;20215;-69
2022/03/22 20:38:25;;;;;;;1999.90;999.90;;;;;;;;;;4999397;28;20692;-71
2022/03/22 20:41:10;;;;;;;1999.90;999.90;;;;;;;;;;4996323;28;20281;-71
2022/03/22 20:43:55;;;;;;;1999.90;999.90;;;;;;;;;;4991889;28;20209;-70
2022/03/22 20:46:42;;;;;;;1999.90;999.90;;;;;;;;;;5009792;28;20222;-72
2022/03/22 20:49:27;;;;;;;1999.90;999.90;;;;;;;;;;5008928;28;20204;-70
2022/03/22 20:52:12;;;;;;;1999.90;999.90;;;;;;;;;;5000258;28;20764;-69
2022/03/22 20:54:57;;;;;;;1999.90;999.90;;;;;;;;;;5001418;28;20207;-72
2022/03/22 21:00:44;;;;;;;1999.90;999.90;;;;;;;;;;5012637;28;20294;-70
2022/03/22 21:03:33;;;;;;;1999.90;999.90;;;;;;;;;;5010360;28;20202;-69
2022/03/22 21:06:18;;;;;;;1999.90;999.90;;;;;;;;;;4995317;28;20211;-70
2022/03/22 21:09:03;;;;;;;1999.90;999.90;;;;;;;;;;4995038;28;20307;-70
2022/03/22 21:11:48;;;;;;;1999.90;999.90;;;;;;;;;;5012875;28;20362;-70
2022/03/22 21:14:34;;;;;;;1999.90;999.90;;;;;;;;;;5012632;28;20336;-70
2022/03/22 21:17:18;;;;;;;1999.90;999.90;;;;;;;;;;5012962;28;20205;-72
2022/03/22 21:20:07;;;;;;;1999.90;999.90;;;;;;;;;;5014260;28;20230;-69
2022/03/22 21:22:52;;;;;;;1999.90;999.90;;;;;;;;;;5000177;28;20233;-71
2022/03/22 21:25:37;;;;;;;1999.90;999.90;;;;;;;;;;4994951;28;20216;-72
2022/03/22 21:28:23;;;;;;;1999.90;999.90;;;;;;;;;;4993882;28;20289;-68
2022/03/22 21:31:09;;;;;;;1999.90;999.90;;;;;;;;;;4994826;28;20222;-71
2022/03/22 21:33:54;;;;;;;1999.90;999.90;;;;;;;;;;4998707;28;20212;-71
2022/03/22 21:36:41;;;;;;;1999.90;999.90;;;;;;;;;;5004629;28;20227;-73
2022/03/22 21:39:25;;;;;;;1999.90;999.90;;;;;;;;;;5013494;28;20224;-74
2022/03/22 21:42:13;;;;;;;1999.90;999.90;;;;;;;;;;5014089;28;20232;-70
2022/03/22 21:44:58;;;;;;;1999.90;999.90;;;;;;;;;;5014337;28;20995;-71
2022/03/22 21:47:42;;;;;;;1999.90;999.90;;;;;;;;;;5013696;28;20208;-71
2022/03/22 21:50:28;;;;;;;1999.90;999.90;;;;;;;;;;5014018;28;20206;-71
2022/03/22 21:53:14;;;;;;;1999.90;999.90;;;;;;;;;;5014017;28;20212;-71
2022/03/22 21:55:59;;;;;;;1999.90;999.90;;;;;;;;;;5014027;28;20346;-71
2022/03/22 21:58:44;;;;;;;1999.90;999.90;;;;;;;;;;5013198;28;20301;-71
